sensor_id;sensor_type;location;lat;lon;timestamp;P1;durP1;ratioP1;P2;durP2;ratioP2
19560;SDS011;9927;47.792;10.616;2024-03-06T04:02:38;6.23;;;5.83;;
19560;SDS011;9927;47.792;10.616;2024-03-06T04:05:05;5.90;;;5.50;;
19560;SDS011;9927;47.792;10.616;2024-03-06T04:07:33;5.27;;;5.07;;
19560;SDS011;9927;47.792;10.616;2024-03-06T04:10:01;5.13;;;4.93;;
19560;SDS011;9927;47.792;10.616;2024-03-06T04:12:29;5.53;;;5.23;;
19560;SDS011;9927;47.792;10.616;2024-03-06T04:14:57;5.43;;;5.20;;
19560;SDS011;9927;47.792;10.616;2024-03-06T04:17:24;5.50;;;5.20;;
19560;SDS011;9927;47.792;10.616;2024-03-06T04:19:52;5.70;;;5.40;;
19560;SDS011;9927;47.792;10.616;2024-03-06T04:22:20;5.80;;;5.50;;
19560;SDS011;9927;47.792;10.616;2024-03-06T04:24:47;5.77;;;5.47;;
19560;SDS011;9927;47.792;10.616;2024-03-06T04:27:14;6.40;;;6.00;;
19560;SDS011;9927;47.792;10.616;2024-03-06T04:29:43;7.23;;;6.63;;
19560;SDS011;9927;47.792;10.616;2024-03-06T04:32:10;7.37;;;6.67;;
19560;SDS011;9927;47.792;10.616;2024-03-06T04:34:37;6.77;;;6.27;;
19560;SDS011;9927;47.792;10.616;2024-03-06T04:37:05;7.33;;;6.73;;
19560;SDS011;9927;47.792;10.616;2024-03-06T04:39:32;6.83;;;6.33;;
19560;SDS011;9927;47.792;10.616;2024-03-06T04:41:59;6.67;;;6.20;;
19560;SDS011;9927;47.792;10.616;2024-03-06T04:44:27;6.03;;;5.67;;
19560;SDS011;9927;47.792;10.616;2024-03-06T04:46:54;6.87;;;6.37;;
19560;SDS011;9927;47.792;10.616;2024-03-06T04:49:23;6.80;;;6.30;;
19560;SDS011;9927;47.792;10.616;2024-03-06T04:51:50;6.13;;;5.73;;
19560;SDS011;9927;47.792;10.616;2024-03-06T04:54:17;6.07;;;5.67;;
19560;SDS011;9927;47.792;10.616;2024-03-06T04:56:44;5.43;;;5.13;;
19560;SDS011;9927;47.792;10.616;2024-03-06T04:59:12;5.60;;;5.27;;
19560;SDS011;9927;47.792;10.616;2024-03-06T05:01:40;5.60;;;5.30;;
19560;SDS011;9927;47.792;10.616;2024-03-06T05:04:10;5.60;;;5.30;;
19560;SDS011;9927;47.792;10.616;2024-03-06T05:06:55;5.90;;;5.50;;
19560;SDS011;9927;47.792;10.616;2024-03-06T05:09:39;5.63;;;5.33;;
19560;SDS011;9927;47.792;10.616;2024-03-06T05:12:26;6.47;;;6.03;;
19560;SDS011;9927;47.792;10.616;2024-03-06T05:15:11;6.43;;;6.03;;
19560;SDS011;9927;47.792;10.616;2024-03-06T05:17:56;6.97;;;6.37;;
19560;SDS011;9927;47.792;10.616;2024-03-06T05:20:40;5.97;;;5.67;;
19560;SDS011;9927;47.792;10.616;2024-03-06T05:23:25;6.50;;;6.10;;
19560;SDS011;9927;47.792;10.616;2024-03-06T05:26:11;5.80;;;5.50;;
19560;SDS011;9927;47.792;10.616;2024-03-06T05:28:56;5.60;;;5.30;;
19560;SDS011;9927;47.792;10.616;2024-03-06T05:31:40;5.83;;;5.43;;
19560;SDS011;9927;47.792;10.616;2024-03-06T05:34:25;5.73;;;5.33;;
19560;SDS011;9927;47.792;10.616;2024-03-06T05:37:10;6.37;;;5.87;;
19560;SDS011;9927;47.792;10.616;2024-03-06T05:39:54;8.00;;;6.00;;
19560;SDS011;9927;47.792;10.616;2024-03-06T05:42:39;6.40;;;5.83;;
19560;SDS011;9927;47.792;10.616;2024-03-06T05:45:24;6.80;;;6.30;;
19560;SDS011;9927;47.792;10.616;2024-03-06T05:48:09;6.30;;;5.70;;
19560;SDS011;9927;47.792;10.616;2024-03-06T05:50:54;6.37;;;5.83;;
19560;SDS011;9927;47.792;10.616;2024-03-06T05:53:39;6.40;;;5.90;;
19560;SDS011;9927;47.792;10.616;2024-03-06T05:56:26;5.90;;;5.50;;
19560;SDS011;9927;47.792;10.616;2024-03-06T05:59:11;6.50;;;6.00;;
19560;SDS011;9927;47.792;10.616;2024-03-06T06:01:38;5.80;;;5.30;;
19560;SDS011;9927;47.792;10.616;2024-03-06T06:04:05;5.40;;;5.10;;
19560;SDS011;9927;47.792;10.616;2024-03-06T06:06:34;6.27;;;5.80;;
19560;SDS011;9927;47.792;10.616;2024-03-06T06:09:02;5.87;;;5.57;;
19560;SDS011;9927;47.792;10.616;2024-03-06T06:11:33;5.63;;;5.27;;
19560;SDS011;9927;47.792;10.616;2024-03-06T06:14:00;6.23;;;5.83;;
19560;SDS011;9927;47.792;10.616;2024-03-06T06:16:34;6.57;;;6.17;;
19560;SDS011;9927;47.792;10.616;2024-03-06T06:19:05;6.30;;;5.90;;
19560;SDS011;9927;47.792;10.616;2024-03-06T06:21:33;5.83;;;5.53;;
19560;SDS011;9927;47.792;10.616;2024-03-06T06:24:03;6.53;;;6.13;;
19560;SDS011;9927;47.792;10.616;2024-03-06T06:26:30;7.17;;;6.70;;
19560;SDS011;9927;47.792;10.616;2024-03-06T06:28:58;7.03;;;6.53;;
19560;SDS011;9927;47.792;10.616;2024-03-06T06:31:26;7.70;;;6.97;;
19560;SDS011;9927;47.792;10.616;2024-03-06T06:33:53;7.77;;;7.10;;
19560;SDS011;9927;47.792;10.616;2024-03-06T06:36:21;7.23;;;6.67;;
19560;SDS011;9927;47.792;10.616;2024-03-06T06:38:48;7.50;;;6.90;;
19560;SDS011;9927;47.792;10.616;2024-03-06T06:41:16;7.23;;;6.73;;
19560;SDS011;9927;47.792;10.616;2024-03-06T06:43:44;7.50;;;6.93;;
19560;SDS011;9927;47.792;10.616;2024-03-06T06:46:12;6.67;;;6.17;;
19560;SDS011;9927;47.792;10.616;2024-03-06T06:48:40;11.40;;;10.20;;
19560;SDS011;9927;47.792;10.616;2024-03-06T06:51:07;8.20;;;7.50;;
19560;SDS011;9927;47.792;10.616;2024-03-06T06:53:34;7.90;;;7.30;;
19560;SDS011;9927;47.792;10.616;2024-03-06T06:56:02;7.37;;;6.87;;
19560;SDS011;9927;47.792;10.616;2024-03-06T06:58:30;7.67;;;7.07;;
19560;SDS011;9927;47.792;10.616;2024-03-06T07:00:57;7.40;;;6.90;;
19560;SDS011;9927;47.792;10.616;2024-03-06T07:03:25;6.90;;;6.40;;
19560;SDS011;9927;47.792;10.616;2024-03-06T07:05:56;6.30;;;5.90;;
19560;SDS011;9927;47.792;10.616;2024-03-06T07:08:24;6.60;;;6.20;;
19560;SDS011;9927;47.792;10.616;2024-03-06T07:10:51;6.57;;;6.23;;
19560;SDS011;9927;47.792;10.616;2024-03-06T07:13:21;7.30;;;6.67;;
19560;SDS011;9927;47.792;10.616;2024-03-06T07:15:49;6.87;;;6.37;;
19560;SDS011;9927;47.792;10.616;2024-03-06T07:18:16;7.03;;;6.33;;
19560;SDS011;9927;47.792;10.616;2024-03-06T07:20:43;6.83;;;6.33;;
19560;SDS011;9927;47.792;10.616;2024-03-06T07:23:11;6.67;;;6.17;;
19560;SDS011;9927;47.792;10.616;2024-03-06T07:25:38;7.23;;;6.63;;
19560;SDS011;9927;47.792;10.616;2024-03-06T07:28:06;7.10;;;6.53;;
19560;SDS011;9927;47.792;10.616;2024-03-06T07:30:33;7.30;;;6.80;;
19560;SDS011;9927;47.792;10.616;2024-03-06T07:33:01;7.40;;;6.70;;
19560;SDS011;9927;47.792;10.616;2024-03-06T07:35:29;6.53;;;6.13;;
19560;SDS011;9927;47.792;10.616;2024-03-06T07:37:56;6.50;;;6.10;;
19560;SDS011;9927;47.792;10.616;2024-03-06T07:40:23;6.57;;;6.00;;
19560;SDS011;9927;47.792;10.616;2024-03-06T07:42:50;5.93;;;5.63;;
19560;SDS011;9927;47.792;10.616;2024-03-06T07:45:18;6.20;;;5.80;;
19560;SDS011;9927;47.792;10.616;2024-03-06T07:47:47;6.07;;;5.63;;
19560;SDS011;9927;47.792;10.616;2024-03-06T07:50:15;5.90;;;5.50;;
19560;SDS011;9927;47.792;10.616;2024-03-06T07:52:49;5.77;;;5.40;;
19560;SDS011;9927;47.792;10.616;2024-03-06T07:55:17;6.00;;;5.60;;
19560;SDS011;9927;47.792;10.616;2024-03-06T07:57:47;5.80;;;5.30;;
19560;SDS011;9927;47.792;10.616;2024-03-06T08:00:15;5.23;;;4.90;;
19560;SDS011;9927;47.792;10.616;2024-03-06T08:02:42;4.80;;;4.60;;
19560;SDS011;9927;47.792;10.616;2024-03-06T08:05:10;4.50;;;4.20;;
19560;SDS011;9927;47.792;10.616;2024-03-06T08:07:41;4.63;;;4.43;;
19560;SDS011;9927;47.792;10.616;2024-03-06T08:10:09;4.10;;;4.00;;
19560;SDS011;9927;47.792;10.616;2024-03-06T08:12:43;4.33;;;4.10;;
19560;SDS011;9927;47.792;10.616;2024-03-06T08:15:12;4.40;;;4.20;;
19560;SDS011;9927;47.792;10.616;2024-03-06T08:17:41;4.87;;;4.67;;
19560;SDS011;9927;47.792;10.616;2024-03-06T08:20:10;4.60;;;4.40;;
19560;SDS011;9927;47.792;10.616;2024-03-06T08:22:39;4.10;;;4.00;;
19560;SDS011;9927;47.792;10.616;2024-03-06T08:25:08;4.33;;;4.13;;
19560;SDS011;9927;47.792;10.616;2024-03-06T08:27:38;3.93;;;3.83;;
19560;SDS011;9927;47.792;10.616;2024-03-06T08:30:06;3.97;;;3.87;;
19560;SDS011;9927;47.792;10.616;2024-03-06T08:32:35;3.93;;;3.83;;
19560;SDS011;9927;47.792;10.616;2024-03-06T08:35:04;4.30;;;4.10;;
19560;SDS011;9927;47.792;10.616;2024-03-06T08:37:32;3.90;;;3.80;;
19560;SDS011;9927;47.792;10.616;2024-03-06T08:40:00;4.50;;;4.30;;
19560;SDS011;9927;47.792;10.616;2024-03-06T08:42:28;4.23;;;4.13;;
19560;SDS011;9927;47.792;10.616;2024-03-06T08:44:55;5.63;;;4.50;;
19560;SDS011;9927;47.792;10.616;2024-03-06T08:47:23;4.47;;;4.27;;
19560;SDS011;9927;47.792;10.616;2024-03-06T08:49:51;5.00;;;4.70;;
19560;SDS011;9927;47.792;10.616;2024-03-06T08:52:18;4.50;;;4.30;;
19560;SDS011;9927;47.792;10.616;2024-03-06T08:54:46;4.93;;;4.73;;
19560;SDS011;9927;47.792;10.616;2024-03-06T08:57:14;4.70;;;4.40;;
19560;SDS011;9927;47.792;10.616;2024-03-06T08:59:42;5.10;;;4.80;;
19560;SDS011;9927;47.792;10.616;2024-03-06T09:02:13;4.90;;;4.70;;
19560;SDS011;9927;47.792;10.616;2024-03-06T09:04:42;5.40;;;5.10;;
19560;SDS011;9927;47.792;10.616;2024-03-06T09:07:10;4.73;;;4.53;;
19560;SDS011;9927;47.792;10.616;2024-03-06T09:09:37;4.40;;;4.30;;
19560;SDS011;9927;47.792;10.616;2024-03-06T09:12:06;4.50;;;4.30;;
19560;SDS011;9927;47.792;10.616;2024-03-06T09:14:37;5.03;;;4.67;;
19560;SDS011;9927;47.792;10.616;2024-03-06T09:17:05;5.23;;;4.97;;
19560;SDS011;9927;47.792;10.616;2024-03-06T09:19:33;4.10;;;4.00;;
19560;SDS011;9927;47.792;10.616;2024-03-06T09:22:00;4.27;;;4.00;;
19560;SDS011;9927;47.792;10.616;2024-03-06T09:24:29;4.57;;;4.33;;
19560;SDS011;9927;47.792;10.616;2024-03-06T09:26:56;4.53;;;4.30;;
19560;SDS011;9927;47.792;10.616;2024-03-06T09:29:24;4.10;;;4.00;;
19560;SDS011;9927;47.792;10.616;2024-03-06T09:31:52;4.30;;;4.10;;
19560;SDS011;9927;47.792;10.616;2024-03-06T09:34:19;4.20;;;4.00;;
19560;SDS011;9927;47.792;10.616;2024-03-06T09:36:48;3.80;;;3.70;;
19560;SDS011;9927;47.792;10.616;2024-03-06T09:39:17;4.43;;;4.13;;
19560;SDS011;9927;47.792;10.616;2024-03-06T09:41:50;4.20;;;3.97;;
19560;SDS011;9927;47.792;10.616;2024-03-06T09:44:18;3.70;;;3.57;;
19560;SDS011;9927;47.792;10.616;2024-03-06T09:46:46;3.70;;;3.60;;
19560;SDS011;9927;47.792;10.616;2024-03-06T09:49:15;3.83;;;3.73;;
19560;SDS011;9927;47.792;10.616;2024-03-06T09:51:47;3.60;;;3.50;;
19560;SDS011;9927;47.792;10.616;2024-03-06T09:54:20;4.07;;;3.97;;
19560;SDS011;9927;47.792;10.616;2024-03-06T09:56:48;3.90;;;3.60;;
19560;SDS011;9927;47.792;10.616;2024-03-06T09:59:15;3.63;;;3.57;;
19560;SDS011;9927;47.792;10.616;2024-03-06T10:01:55;5.20;;;4.77;;
19560;SDS011;9927;47.792;10.616;2024-03-06T10:04:24;3.90;;;3.80;;
19560;SDS011;9927;47.792;10.616;2024-03-06T10:06:56;3.80;;;3.70;;
19560;SDS011;9927;47.792;10.616;2024-03-06T10:09:25;3.50;;;3.40;;
19560;SDS011;9927;47.792;10.616;2024-03-06T10:11:53;3.37;;;3.37;;
19560;SDS011;9927;47.792;10.616;2024-03-06T10:14:23;3.80;;;3.60;;
19560;SDS011;9927;47.792;10.616;2024-03-06T10:16:59;3.33;;;3.33;;
19560;SDS011;9927;47.792;10.616;2024-03-06T10:19:28;4.20;;;4.00;;
19560;SDS011;9927;47.792;10.616;2024-03-06T10:21:56;3.20;;;3.20;;
19560;SDS011;9927;47.792;10.616;2024-03-06T10:24:28;3.40;;;3.30;;
19560;SDS011;9927;47.792;10.616;2024-03-06T10:26:56;3.20;;;3.10;;
19560;SDS011;9927;47.792;10.616;2024-03-06T10:29:26;3.40;;;3.30;;
19560;SDS011;9927;47.792;10.616;2024-03-06T10:31:57;3.10;;;3.10;;
19560;SDS011;9927;47.792;10.616;2024-03-06T10:34:26;3.30;;;3.20;;
19560;SDS011;9927;47.792;10.616;2024-03-06T10:37:01;3.20;;;3.10;;
19560;SDS011;9927;47.792;10.616;2024-03-06T10:39:33;3.23;;;3.13;;
19560;SDS011;9927;47.792;10.616;2024-03-06T10:42:01;3.30;;;3.20;;
19560;SDS011;9927;47.792;10.616;2024-03-06T10:44:29;3.30;;;3.30;;
19560;SDS011;9927;47.792;10.616;2024-03-06T10:49:28;3.40;;;3.40;;
19560;SDS011;9927;47.792;10.616;2024-03-06T10:51:57;3.60;;;3.50;;
19560;SDS011;9927;47.792;10.616;2024-03-06T10:54:29;3.70;;;3.60;;
19560;SDS011;9927;47.792;10.616;2024-03-06T10:56:59;3.60;;;3.40;;
19560;SDS011;9927;47.792;10.616;2024-03-06T10:59:26;3.60;;;3.50;;
19560;SDS011;9927;47.792;10.616;2024-03-06T11:01:55;3.47;;;3.37;;
19560;SDS011;9927;47.792;10.616;2024-03-06T11:04:24;3.60;;;3.50;;
19560;SDS011;9927;47.792;10.616;2024-03-06T11:06:55;3.30;;;3.30;;
19560;SDS011;9927;47.792;10.616;2024-03-06T11:09:23;3.60;;;3.40;;
19560;SDS011;9927;47.792;10.616;2024-03-06T11:11:51;3.83;;;3.73;;
19560;SDS011;9927;47.792;10.616;2024-03-06T11:14:23;3.50;;;3.40;;
19560;SDS011;9927;47.792;10.616;2024-03-06T11:16:56;3.40;;;3.30;;
19560;SDS011;9927;47.792;10.616;2024-03-06T11:19:30;3.10;;;3.10;;
19560;SDS011;9927;47.792;10.616;2024-03-06T11:21:58;3.63;;;3.53;;
19560;SDS011;9927;47.792;10.616;2024-03-06T11:24:32;3.77;;;3.67;;
19560;SDS011;9927;47.792;10.616;2024-03-06T11:27:03;3.60;;;3.50;;
19560;SDS011;9927;47.792;10.616;2024-03-06T11:32:37;3.20;;;3.10;;
19560;SDS011;9927;47.792;10.616;2024-03-06T11:35:23;3.10;;;3.10;;
19560;SDS011;9927;47.792;10.616;2024-03-06T11:37:51;3.10;;;3.10;;
19560;SDS011;9927;47.792;10.616;2024-03-06T11:40:23;3.40;;;3.20;;
19560;SDS011;9927;47.792;10.616;2024-03-06T11:42:51;4.23;;;4.10;;
19560;SDS011;9927;47.792;10.616;2024-03-06T11:45:21;3.43;;;3.33;;
19560;SDS011;9927;47.792;10.616;2024-03-06T11:48:01;3.50;;;3.40;;
19560;SDS011;9927;47.792;10.616;2024-03-06T11:50:30;3.70;;;3.60;;
19560;SDS011;9927;47.792;10.616;2024-03-06T11:53:00;3.50;;;3.40;;
19560;SDS011;9927;47.792;10.616;2024-03-06T11:55:27;3.53;;;3.43;;
19560;SDS011;9927;47.792;10.616;2024-03-06T11:57:54;3.40;;;3.33;;
19560;SDS011;9927;47.792;10.616;2024-03-06T12:00:22;3.70;;;3.40;;
19560;SDS011;9927;47.792;10.616;2024-03-06T12:02:51;4.30;;;4.20;;
19560;SDS011;9927;47.792;10.616;2024-03-06T12:05:19;3.40;;;3.30;;
19560;SDS011;9927;47.792;10.616;2024-03-06T12:07:49;3.83;;;3.73;;
19560;SDS011;9927;47.792;10.616;2024-03-06T12:10:17;3.33;;;3.20;;
19560;SDS011;9927;47.792;10.616;2024-03-06T12:12:45;3.00;;;3.00;;
19560;SDS011;9927;47.792;10.616;2024-03-06T12:15:14;3.10;;;3.10;;
19560;SDS011;9927;47.792;10.616;2024-03-06T12:17:44;3.33;;;3.30;;
19560;SDS011;9927;47.792;10.616;2024-03-06T12:20:14;3.63;;;3.43;;
19560;SDS011;9927;47.792;10.616;2024-03-06T12:25:18;4.10;;;4.00;;
19560;SDS011;9927;47.792;10.616;2024-03-06T12:27:50;3.77;;;3.67;;
19560;SDS011;9927;47.792;10.616;2024-03-06T12:30:22;3.90;;;3.70;;
19560;SDS011;9927;47.792;10.616;2024-03-06T12:32:56;3.50;;;3.30;;
19560;SDS011;9927;47.792;10.616;2024-03-06T12:35:25;4.83;;;4.53;;
19560;SDS011;9927;47.792;10.616;2024-03-06T12:37:53;3.60;;;3.50;;
19560;SDS011;9927;47.792;10.616;2024-03-06T12:40:21;3.47;;;3.37;;
19560;SDS011;9927;47.792;10.616;2024-03-06T12:42:51;3.00;;;3.00;;
19560;SDS011;9927;47.792;10.616;2024-03-06T12:45:20;3.33;;;3.23;;
19560;SDS011;9927;47.792;10.616;2024-03-06T12:47:47;3.00;;;3.00;;
19560;SDS011;9927;47.792;10.616;2024-03-06T12:50:15;3.60;;;3.40;;
19560;SDS011;9927;47.792;10.616;2024-03-06T12:52:43;2.93;;;2.93;;
19560;SDS011;9927;47.792;10.616;2024-03-06T12:55:12;3.33;;;3.23;;
19560;SDS011;9927;47.792;10.616;2024-03-06T12:57:41;3.00;;;3.00;;
19560;SDS011;9927;47.792;10.616;2024-03-06T13:00:09;3.27;;;3.17;;
19560;SDS011;9927;47.792;10.616;2024-03-06T13:02:44;2.90;;;2.80;;
19560;SDS011;9927;47.792;10.616;2024-03-06T13:05:13;2.90;;;2.90;;
19560;SDS011;9927;47.792;10.616;2024-03-06T13:07:42;3.03;;;2.93;;
19560;SDS011;9927;47.792;10.616;2024-03-06T13:10:10;2.80;;;2.80;;
19560;SDS011;9927;47.792;10.616;2024-03-06T13:12:38;2.90;;;2.90;;
19560;SDS011;9927;47.792;10.616;2024-03-06T13:15:06;2.90;;;2.90;;
19560;SDS011;9927;47.792;10.616;2024-03-06T13:17:36;2.93;;;2.93;;
19560;SDS011;9927;47.792;10.616;2024-03-06T13:20:04;2.77;;;2.77;;
19560;SDS011;9927;47.792;10.616;2024-03-06T13:22:35;2.70;;;2.70;;
19560;SDS011;9927;47.792;10.616;2024-03-06T13:25:03;2.80;;;2.70;;
19560;SDS011;9927;47.792;10.616;2024-03-06T13:27:31;3.00;;;3.00;;
19560;SDS011;9927;47.792;10.616;2024-03-06T13:29:59;3.07;;;3.03;;
19560;SDS011;9927;47.792;10.616;2024-03-06T13:32:31;3.50;;;3.40;;
19560;SDS011;9927;47.792;10.616;2024-03-06T13:34:58;3.00;;;3.00;;
19560;SDS011;9927;47.792;10.616;2024-03-06T13:37:26;2.80;;;2.80;;
19560;SDS011;9927;47.792;10.616;2024-03-06T13:39:53;2.97;;;2.97;;
19560;SDS011;9927;47.792;10.616;2024-03-06T13:42:24;2.80;;;2.80;;
19560;SDS011;9927;47.792;10.616;2024-03-06T13:44:52;2.97;;;2.87;;
19560;SDS011;9927;47.792;10.616;2024-03-06T13:47:19;3.00;;;2.90;;
19560;SDS011;9927;47.792;10.616;2024-03-06T13:49:46;2.80;;;2.80;;
19560;SDS011;9927;47.792;10.616;2024-03-06T13:52:14;2.70;;;2.60;;
19560;SDS011;9927;47.792;10.616;2024-03-06T13:54:42;2.90;;;2.90;;
19560;SDS011;9927;47.792;10.616;2024-03-06T13:57:09;2.90;;;2.80;;
19560;SDS011;9927;47.792;10.616;2024-03-06T13:59:37;3.00;;;3.00;;
19560;SDS011;9927;47.792;10.616;2024-03-06T14:02:05;3.30;;;3.20;;
19560;SDS011;9927;47.792;10.616;2024-03-06T14:04:33;2.87;;;2.87;;
19560;SDS011;9927;47.792;10.616;2024-03-06T14:07:01;2.80;;;2.80;;
19560;SDS011;9927;47.792;10.616;2024-03-06T14:09:29;3.80;;;3.70;;
19560;SDS011;9927;47.792;10.616;2024-03-06T14:11:57;3.60;;;3.50;;
19560;SDS011;9927;47.792;10.616;2024-03-06T14:14:25;3.20;;;3.10;;
19560;SDS011;9927;47.792;10.616;2024-03-06T14:16:52;2.80;;;2.80;;
19560;SDS011;9927;47.792;10.616;2024-03-06T14:19:19;2.87;;;2.87;;
19560;SDS011;9927;47.792;10.616;2024-03-06T14:21:48;3.20;;;3.17;;
19560;SDS011;9927;47.792;10.616;2024-03-06T14:24:16;3.00;;;3.00;;
19560;SDS011;9927;47.792;10.616;2024-03-06T14:26:43;3.10;;;3.10;;
19560;SDS011;9927;47.792;10.616;2024-03-06T14:29:11;3.00;;;2.90;;
19560;SDS011;9927;47.792;10.616;2024-03-06T14:31:38;3.10;;;3.10;;
19560;SDS011;9927;47.792;10.616;2024-03-06T14:34:05;3.20;;;3.10;;
19560;SDS011;9927;47.792;10.616;2024-03-06T14:36:33;3.00;;;3.00;;
19560;SDS011;9927;47.792;10.616;2024-03-06T14:39:01;3.10;;;3.10;;
19560;SDS011;9927;47.792;10.616;2024-03-06T14:41:29;3.20;;;3.10;;
19560;SDS011;9927;47.792;10.616;2024-03-06T14:43:57;3.20;;;3.10;;
19560;SDS011;9927;47.792;10.616;2024-03-06T14:46:24;3.30;;;3.30;;
19560;SDS011;9927;47.792;10.616;2024-03-06T14:48:51;3.03;;;3.03;;
19560;SDS011;9927;47.792;10.616;2024-03-06T14:51:19;3.47;;;3.37;;
19560;SDS011;9927;47.792;10.616;2024-03-06T14:53:46;3.40;;;3.30;;
19560;SDS011;9927;47.792;10.616;2024-03-06T14:56:14;3.40;;;3.30;;
19560;SDS011;9927;47.792;10.616;2024-03-06T14:58:41;3.83;;;3.73;;
19560;SDS011;9927;47.792;10.616;2024-03-06T15:01:08;3.40;;;3.30;;
19560;SDS011;9927;47.792;10.616;2024-03-06T15:03:36;3.20;;;3.20;;
19560;SDS011;9927;47.792;10.616;2024-03-06T15:06:03;3.40;;;3.40;;
19560;SDS011;9927;47.792;10.616;2024-03-06T15:08:30;3.50;;;3.40;;
19560;SDS011;9927;47.792;10.616;2024-03-06T15:10:58;3.83;;;3.70;;
19560;SDS011;9927;47.792;10.616;2024-03-06T15:13:25;3.47;;;3.47;;
19560;SDS011;9927;47.792;10.616;2024-03-06T15:15:52;4.70;;;4.50;;
19560;SDS011;9927;47.792;10.616;2024-03-06T15:18:20;4.17;;;4.07;;
19560;SDS011;9927;47.792;10.616;2024-03-06T15:20:47;3.70;;;3.60;;
19560;SDS011;9927;47.792;10.616;2024-03-06T15:23:17;3.50;;;3.40;;
19560;SDS011;9927;47.792;10.616;2024-03-06T15:25:44;3.50;;;3.40;;
19560;SDS011;9927;47.792;10.616;2024-03-06T15:28:12;4.43;;;4.23;;
19560;SDS011;9927;47.792;10.616;2024-03-06T15:30:39;5.80;;;5.30;;
19560;SDS011;9927;47.792;10.616;2024-03-06T15:33:06;5.90;;;5.40;;
19560;SDS011;9927;47.792;10.616;2024-03-06T15:35:34;7.93;;;7.13;;
19560;SDS011;9927;47.792;10.616;2024-03-06T15:38:02;6.70;;;6.10;;
19560;SDS011;9927;47.792;10.616;2024-03-06T15:40:30;5.00;;;4.63;;
19560;SDS011;9927;47.792;10.616;2024-03-06T15:42:57;4.80;;;4.60;;
19560;SDS011;9927;47.792;10.616;2024-03-06T15:45:24;4.70;;;4.50;;
19560;SDS011;9927;47.792;10.616;2024-03-06T15:47:52;4.20;;;4.10;;
19560;SDS011;9927;47.792;10.616;2024-03-06T15:50:19;4.80;;;4.40;;
19560;SDS011;9927;47.792;10.616;2024-03-06T15:52:47;6.30;;;5.90;;
19560;SDS011;9927;47.792;10.616;2024-03-06T15:55:14;5.80;;;5.40;;
19560;SDS011;9927;47.792;10.616;2024-03-06T15:57:41;6.93;;;6.43;;
19560;SDS011;9927;47.792;10.616;2024-03-06T16:00:10;10.53;;;9.43;;
19560;SDS011;9927;47.792;10.616;2024-03-06T16:02:41;21.67;;;14.40;;
19560;SDS011;9927;47.792;10.616;2024-03-06T16:05:09;12.83;;;10.00;;
19560;SDS011;9927;47.792;10.616;2024-03-06T16:07:37;14.43;;;11.70;;
19560;SDS011;9927;47.792;10.616;2024-03-06T16:10:17;14.53;;;9.87;;
19560;SDS011;9927;47.792;10.616;2024-03-06T16:12:44;7.00;;;6.40;;
19560;SDS011;9927;47.792;10.616;2024-03-06T16:15:12;6.33;;;5.80;;
19560;SDS011;9927;47.792;10.616;2024-03-06T16:17:39;11.20;;;10.10;;
19560;SDS011;9927;47.792;10.616;2024-03-06T16:20:07;9.97;;;8.97;;
19560;SDS011;9927;47.792;10.616;2024-03-06T16:22:38;14.80;;;13.00;;
19560;SDS011;9927;47.792;10.616;2024-03-06T16:25:06;27.27;;;16.47;;
19560;SDS011;9927;47.792;10.616;2024-03-06T16:27:33;21.97;;;15.73;;
19560;SDS011;9927;47.792;10.616;2024-03-06T16:30:00;31.63;;;28.23;;
19560;SDS011;9927;47.792;10.616;2024-03-06T16:32:30;24.73;;;22.03;;
19560;SDS011;9927;47.792;10.616;2024-03-06T16:34:58;26.10;;;23.40;;
19560;SDS011;9927;47.792;10.616;2024-03-06T16:37:25;25.07;;;21.60;;
19560;SDS011;9927;47.792;10.616;2024-03-06T16:39:52;30.00;;;24.10;;
19560;SDS011;9927;47.792;10.616;2024-03-06T16:42:19;18.30;;;16.37;;
19560;SDS011;9927;47.792;10.616;2024-03-06T16:44:47;19.57;;;17.47;;
19560;SDS011;9927;47.792;10.616;2024-03-06T16:47:15;16.70;;;15.17;;
19560;SDS011;9927;47.792;10.616;2024-03-06T16:49:42;14.10;;;13.00;;
19560;SDS011;9927;47.792;10.616;2024-03-06T16:52:09;17.50;;;15.80;;
19560;SDS011;9927;47.792;10.616;2024-03-06T16:54:38;16.03;;;14.50;;
19560;SDS011;9927;47.792;10.616;2024-03-06T16:57:07;21.60;;;17.80;;
19560;SDS011;9927;47.792;10.616;2024-03-06T16:59:37;19.33;;;17.07;;
19560;SDS011;9927;47.792;10.616;2024-03-06T17:02:05;27.27;;;23.27;;
19560;SDS011;9927;47.792;10.616;2024-03-06T17:04:32;34.73;;;25.73;;
19560;SDS011;9927;47.792;10.616;2024-03-06T17:06:59;20.87;;;17.23;;
19560;SDS011;9927;47.792;10.616;2024-03-06T17:09:29;16.17;;;14.53;;
19560;SDS011;9927;47.792;10.616;2024-03-06T17:11:57;15.80;;;13.30;;
19560;SDS011;9927;47.792;10.616;2024-03-06T17:14:25;13.27;;;11.90;;
19560;SDS011;9927;47.792;10.616;2024-03-06T17:16:55;15.33;;;13.07;;
19560;SDS011;9927;47.792;10.616;2024-03-06T17:19:22;16.97;;;14.53;;
19560;SDS011;9927;47.792;10.616;2024-03-06T17:21:49;16.67;;;14.23;;
19560;SDS011;9927;47.792;10.616;2024-03-06T17:24:16;26.43;;;23.83;;
19560;SDS011;9927;47.792;10.616;2024-03-06T17:26:44;20.10;;;18.03;;
19560;SDS011;9927;47.792;10.616;2024-03-06T17:29:12;17.40;;;15.83;;
19560;SDS011;9927;47.792;10.616;2024-03-06T17:31:39;16.03;;;14.43;;
19560;SDS011;9927;47.792;10.616;2024-03-06T17:34:06;15.23;;;13.40;;
19560;SDS011;9927;47.792;10.616;2024-03-06T17:36:34;18.97;;;15.33;;
19560;SDS011;9927;47.792;10.616;2024-03-06T17:39:04;18.83;;;16.23;;
19560;SDS011;9927;47.792;10.616;2024-03-06T17:41:36;14.67;;;13.00;;
19560;SDS011;9927;47.792;10.616;2024-03-06T17:44:03;16.17;;;14.43;;
19560;SDS011;9927;47.792;10.616;2024-03-06T17:46:31;14.87;;;13.37;;
19560;SDS011;9927;47.792;10.616;2024-03-06T17:48:58;15.47;;;13.87;;
19560;SDS011;9927;47.792;10.616;2024-03-06T17:51:29;15.17;;;13.67;;
19560;SDS011;9927;47.792;10.616;2024-03-06T17:53:57;18.70;;;14.97;;
19560;SDS011;9927;47.792;10.616;2024-03-06T17:56:24;14.90;;;13.40;;
19560;SDS011;9927;47.792;10.616;2024-03-06T17:58:52;20.73;;;16.73;;
19560;SDS011;9927;47.792;10.616;2024-03-06T18:01:19;27.67;;;21.40;;
19560;SDS011;9927;47.792;10.616;2024-03-06T18:03:50;31.00;;;27.70;;
19560;SDS011;9927;47.792;10.616;2024-03-06T18:06:18;24.80;;;22.30;;
19560;SDS011;9927;47.792;10.616;2024-03-06T18:08:48;24.10;;;20.73;;
19560;SDS011;9927;47.792;10.616;2024-03-06T18:11:15;34.03;;;22.83;;
19560;SDS011;9927;47.792;10.616;2024-03-06T18:13:44;50.47;;;28.27;;
19560;SDS011;9927;47.792;10.616;2024-03-06T18:16:12;41.43;;;25.10;;
19560;SDS011;9927;47.792;10.616;2024-03-06T18:18:39;26.83;;;18.47;;
19560;SDS011;9927;47.792;10.616;2024-03-06T18:21:07;15.53;;;13.50;;
19560;SDS011;9927;47.792;10.616;2024-03-06T18:23:35;14.27;;;12.83;;
19560;SDS011;9927;47.792;10.616;2024-03-06T18:26:03;15.83;;;14.33;;
19560;SDS011;9927;47.792;10.616;2024-03-06T18:28:30;14.50;;;13.10;;
19560;SDS011;9927;47.792;10.616;2024-03-06T18:30:57;14.30;;;12.67;;
19560;SDS011;9927;47.792;10.616;2024-03-06T18:33:28;12.80;;;11.60;;
19560;SDS011;9927;47.792;10.616;2024-03-06T18:35:55;13.67;;;12.47;;
19560;SDS011;9927;47.792;10.616;2024-03-06T18:38:23;11.47;;;10.57;;
19560;SDS011;9927;47.792;10.616;2024-03-06T18:40:50;11.97;;;10.77;;
19560;SDS011;9927;47.792;10.616;2024-03-06T18:43:18;10.97;;;10.07;;
19560;SDS011;9927;47.792;10.616;2024-03-06T18:45:45;9.10;;;8.40;;
19560;SDS011;9927;47.792;10.616;2024-03-06T18:48:13;8.70;;;8.00;;
19560;SDS011;9927;47.792;10.616;2024-03-06T18:50:40;9.03;;;8.33;;
19560;SDS011;9927;47.792;10.616;2024-03-06T18:53:09;10.47;;;9.53;;
19560;SDS011;9927;47.792;10.616;2024-03-06T18:55:36;9.43;;;8.73;;
19560;SDS011;9927;47.792;10.616;2024-03-06T18:58:03;10.37;;;9.47;;
19560;SDS011;9927;47.792;10.616;2024-03-06T19:00:31;22.17;;;18.67;;
19560;SDS011;9927;47.792;10.616;2024-03-06T19:03:00;24.27;;;21.33;;
19560;SDS011;9927;47.792;10.616;2024-03-06T19:05:27;22.40;;;20.00;;